sensor_id;sensor_type;location;lat;lon;timestamp;pressure;altitude;pressure_sealevel;temperature;humidity
19783;BME280;10051;40.294;-3.754;2023-11-21T00:01:31;94502.84;;;12.85;81.42
19783;BME280;10051;40.294;-3.754;2023-11-21T00:03:58;94479.28;;;12.69;81.15
19783;BME280;10051;40.294;-3.754;2023-11-21T00:06:23;94521.19;;;12.95;81.29
19783;BME280;10051;40.294;-3.754;2023-11-21T00:08:49;94525.28;;;12.82;82.12
19783;BME280;10051;40.294;-3.754;2023-11-21T00:11:15;94474.84;;;12.45;82.23
19783;BME280;10051;40.294;-3.754;2023-11-21T00:13:41;94506.38;;;12.56;82.30
19783;BME280;10051;40.294;-3.754;2023-11-21T00:16:06;94525.09;;;12.78;82.68
19783;BME280;10051;40.294;-3.754;2023-11-21T00:18:33;94529.66;;;12.73;82.83
19783;BME280;10051;40.294;-3.754;2023-11-21T00:20:58;94521.19;;;12.76;82.39
19783;BME280;10051;40.294;-3.754;2023-11-21T00:23:24;94518.81;;;12.74;82.86
19783;BME280;10051;40.294;-3.754;2023-11-21T00:25:50;94499.94;;;12.62;82.72
19783;BME280;10051;40.294;-3.754;2023-11-21T00:28:16;94495.88;;;12.51;82.88
19783;BME280;10051;40.294;-3.754;2023-11-21T00:30:41;94518.50;;;12.57;84.11
19783;BME280;10051;40.294;-3.754;2023-11-21T00:33:07;94519.06;;;12.54;84.42
19783;BME280;10051;40.294;-3.754;2023-11-21T00:35:32;94513.00;;;12.53;85.08
19783;BME280;10051;40.294;-3.754;2023-11-21T00:37:58;94514.84;;;12.53;85.20
19783;BME280;10051;40.294;-3.754;2023-11-21T00:40:24;94519.63;;;12.51;85.13
19783;BME280;10051;40.294;-3.754;2023-11-21T00:42:50;94482.41;;;12.28;85.20
19783;BME280;10051;40.294;-3.754;2023-11-21T00:45:15;94512.09;;;12.39;85.59
19783;BME280;10051;40.294;-3.754;2023-11-21T00:47:41;94503.50;;;12.28;85.59
19783;BME280;10051;40.294;-3.754;2023-11-21T00:50:08;94507.72;;;12.29;86.32
19783;BME280;10051;40.294;-3.754;2023-11-21T00:52:34;94458.47;;;12.00;86.00
19783;BME280;10051;40.294;-3.754;2023-11-21T00:55:01;94504.00;;;12.30;85.77
19783;BME280;10051;40.294;-3.754;2023-11-21T00:57:28;94487.38;;;12.10;86.10
19783;BME280;10051;40.294;-3.754;2023-11-21T00:59:54;94502.38;;;12.10;86.24
19783;BME280;10051;40.294;-3.754;2023-11-21T01:02:20;94446.25;;;11.50;88.03
19783;BME280;10051;40.294;-3.754;2023-11-21T01:04:45;94510.09;;;11.71;88.95
19783;BME280;10051;40.294;-3.754;2023-11-21T01:07:13;94500.13;;;11.63;89.35
19783;BME280;10051;40.294;-3.754;2023-11-21T01:09:39;94498.31;;;11.64;89.50
19783;BME280;10051;40.294;-3.754;2023-11-21T01:12:05;94499.00;;;11.74;90.13
19783;BME280;10051;40.294;-3.754;2023-11-21T01:14:31;94497.69;;;11.72;89.67
19783;BME280;10051;40.294;-3.754;2023-11-21T01:16:59;94490.91;;;11.66;89.55
19783;BME280;10051;40.294;-3.754;2023-11-21T01:19:26;94489.56;;;11.34;90.97
19783;BME280;10051;40.294;-3.754;2023-11-21T01:21:51;94474.84;;;11.27;91.08
19783;BME280;10051;40.294;-3.754;2023-11-21T01:24:18;94495.03;;;11.42;90.80
19783;BME280;10051;40.294;-3.754;2023-11-21T01:26:45;94478.75;;;11.40;90.87
19783;BME280;10051;40.294;-3.754;2023-11-21T01:29:12;94469.56;;;11.33;90.35
19783;BME280;10051;40.294;-3.754;2023-11-21T01:31:38;94488.16;;;11.47;90.51
19783;BME280;10051;40.294;-3.754;2023-11-21T01:34:04;94489.16;;;11.51;90.85
19783;BME280;10051;40.294;-3.754;2023-11-21T01:36:31;94499.19;;;11.49;90.00
19783;BME280;10051;40.294;-3.754;2023-11-21T01:39:01;94469.13;;;11.25;90.82
19783;BME280;10051;40.294;-3.754;2023-11-21T01:41:27;94461.28;;;11.15;90.46
19783;BME280;10051;40.294;-3.754;2023-11-21T01:43:54;94473.38;;;11.16;90.08
19783;BME280;10051;40.294;-3.754;2023-11-21T01:46:21;94505.91;;;11.30;90.50
19783;BME280;10051;40.294;-3.754;2023-11-21T01:48:51;94496.91;;;11.02;91.53
19783;BME280;10051;40.294;-3.754;2023-11-21T01:51:18;94493.25;;;10.93;91.64
19783;BME280;10051;40.294;-3.754;2023-11-21T01:53:44;94483.97;;;11.06;91.07
19783;BME280;10051;40.294;-3.754;2023-11-21T01:56:12;94514.41;;;11.22;90.74
19783;BME280;10051;40.294;-3.754;2023-11-21T01:58:39;94464.34;;;10.88;90.68
19783;BME280;10051;40.294;-3.754;2023-11-21T02:01:05;94497.66;;;11.08;89.87
19783;BME280;10051;40.294;-3.754;2023-11-21T02:03:30;94523.88;;;11.23;90.69
19783;BME280;10051;40.294;-3.754;2023-11-21T02:05:56;94507.91;;;11.04;90.23
19783;BME280;10051;40.294;-3.754;2023-11-21T02:08:22;94517.13;;;11.07;90.71
19783;BME280;10051;40.294;-3.754;2023-11-21T02:10:47;94507.69;;;11.00;90.79
19783;BME280;10051;40.294;-3.754;2023-11-21T02:13:13;94529.28;;;10.97;91.55
19783;BME280;10051;40.294;-3.754;2023-11-21T02:15:39;94477.47;;;10.32;93.45
19783;BME280;10051;40.294;-3.754;2023-11-21T02:18:05;94505.31;;;10.44;94.81
19783;BME280;10051;40.294;-3.754;2023-11-21T02:20:31;94532.06;;;10.61;93.99
19783;BME280;10051;40.294;-3.754;2023-11-21T02:23:00;94530.56;;;10.39;94.36
19783;BME280;10051;40.294;-3.754;2023-11-21T02:25:30;94536.59;;;10.50;94.35
19783;BME280;10051;40.294;-3.754;2023-11-21T02:27:56;94537.56;;;10.70;93.82
19783;BME280;10051;40.294;-3.754;2023-11-21T02:30:23;94532.28;;;10.75;92.97
19783;BME280;10051;40.294;-3.754;2023-11-21T02:32:50;94527.78;;;10.81;91.47
19783;BME280;10051;40.294;-3.754;2023-11-21T02:35:19;94521.00;;;10.69;91.15
19783;BME280;10051;40.294;-3.754;2023-11-21T02:37:50;94529.97;;;10.63;91.50
19783;BME280;10051;40.294;-3.754;2023-11-21T02:40:16;94538.16;;;10.51;92.14
19783;BME280;10051;40.294;-3.754;2023-11-21T02:42:50;94515.38;;;10.05;94.40
19783;BME280;10051;40.294;-3.754;2023-11-21T02:45:20;94498.63;;;9.80;95.64
19783;BME280;10051;40.294;-3.754;2023-11-21T02:47:50;94497.25;;;10.04;94.99
19783;BME280;10051;40.294;-3.754;2023-11-21T02:50:22;94507.72;;;10.24;93.76
19783;BME280;10051;40.294;-3.754;2023-11-21T02:52:48;94525.28;;;10.50;92.71
19783;BME280;10051;40.294;-3.754;2023-11-21T02:55:14;94530.50;;;10.60;91.86
19783;BME280;10051;40.294;-3.754;2023-11-21T02:57:41;94528.63;;;10.66;91.55
19783;BME280;10051;40.294;-3.754;2023-11-21T03:00:07;94511.84;;;10.56;90.85
19783;BME280;10051;40.294;-3.754;2023-11-21T03:02:33;94510.53;;;10.54;90.85
19783;BME280;10051;40.294;-3.754;2023-11-21T03:05:06;94503.50;;;10.39;91.21
19783;BME280;10051;40.294;-3.754;2023-11-21T03:07:32;94508.72;;;10.34;91.26
19783;BME280;10051;40.294;-3.754;2023-11-21T03:09:57;94493.53;;;10.20;91.24
19783;BME280;10051;40.294;-3.754;2023-11-21T03:12:23;94533.41;;;10.59;90.60
19783;BME280;10051;40.294;-3.754;2023-11-21T03:14:48;94529.13;;;10.68;91.01
19783;BME280;10051;40.294;-3.754;2023-11-21T03:17:14;94530.47;;;10.70;90.47
19783;BME280;10051;40.294;-3.754;2023-11-21T03:19:41;94526.78;;;10.71;91.00
19783;BME280;10051;40.294;-3.754;2023-11-21T03:22:07;94507.13;;;10.59;90.37
19783;BME280;10051;40.294;-3.754;2023-11-21T03:24:34;94527.81;;;10.76;89.88
19783;BME280;10051;40.294;-3.754;2023-11-21T03:27:00;94520.44;;;10.78;89.55
19783;BME280;10051;40.294;-3.754;2023-11-21T03:29:25;94511.78;;;10.72;89.48
19783;BME280;10051;40.294;-3.754;2023-11-21T03:31:51;94492.44;;;10.32;91.04
19783;BME280;10051;40.294;-3.754;2023-11-21T03:34:24;94515.06;;;10.43;91.93
19783;BME280;10051;40.294;-3.754;2023-11-21T03:36:50;94523.44;;;10.50;90.42
19783;BME280;10051;40.294;-3.754;2023-11-21T03:39:16;94517.91;;;10.47;90.68
19783;BME280;10051;40.294;-3.754;2023-11-21T03:41:41;94518.69;;;10.52;90.66
19783;BME280;10051;40.294;-3.754;2023-11-21T03:44:07;94509.75;;;10.53;90.98
19783;BME280;10051;40.294;-3.754;2023-11-21T03:46:32;94528.69;;;10.55;90.05
19783;BME280;10051;40.294;-3.754;2023-11-21T03:48:58;94519.22;;;10.54;90.23
19783;BME280;10051;40.294;-3.754;2023-11-21T03:51:24;94471.75;;;10.15;89.41
19783;BME280;10051;40.294;-3.754;2023-11-21T03:53:49;94525.78;;;10.52;89.93
19783;BME280;10051;40.294;-3.754;2023-11-21T03:56:15;94497.97;;;10.30;89.86
19783;BME280;10051;40.294;-3.754;2023-11-21T03:58:43;94525.25;;;10.60;89.18
19783;BME280;10051;40.294;-3.754;2023-11-21T04:01:08;94519.44;;;10.63;89.18
19783;BME280;10051;40.294;-3.754;2023-11-21T04:03:38;94512.59;;;10.62;88.36
19783;BME280;10051;40.294;-3.754;2023-11-21T04:06:11;94523.66;;;10.64;88.93
19783;BME280;10051;40.294;-3.754;2023-11-21T04:08:37;94531.78;;;10.63;88.64
19783;BME280;10051;40.294;-3.754;2023-11-21T04:11:03;94505.81;;;10.51;88.14
19783;BME280;10051;40.294;-3.754;2023-11-21T04:13:29;94513.16;;;10.59;87.78
19783;BME280;10051;40.294;-3.754;2023-11-21T04:15:56;94517.88;;;10.62;88.18
19783;BME280;10051;40.294;-3.754;2023-11-21T04:18:25;94528.88;;;10.75;87.95
19783;BME280;10051;40.294;-3.754;2023-11-21T04:20:51;94516.00;;;10.63;87.48
19783;BME280;10051;40.294;-3.754;2023-11-21T04:23:16;94529.97;;;10.63;88.48
19783;BME280;10051;40.294;-3.754;2023-11-21T04:25:42;94472.78;;;10.24;87.85
19783;BME280;10051;40.294;-3.754;2023-11-21T04:28:08;94525.25;;;10.60;88.10
19783;BME280;10051;40.294;-3.754;2023-11-21T04:30:33;94498.22;;;10.39;88.58
19783;BME280;10051;40.294;-3.754;2023-11-21T04:32:59;94508.72;;;10.49;88.55
19783;BME280;10051;40.294;-3.754;2023-11-21T04:35:25;94528.63;;;10.61;88.10
19783;BME280;10051;40.294;-3.754;2023-11-21T04:37:50;94538.09;;;10.67;89.10
19783;BME280;10051;40.294;-3.754;2023-11-21T04:40:16;94520.28;;;10.53;89.68
19783;BME280;10051;40.294;-3.754;2023-11-21T04:42:42;94502.19;;;10.26;89.68
19783;BME280;10051;40.294;-3.754;2023-11-21T04:45:08;94554.47;;;10.48;90.30
19783;BME280;10051;40.294;-3.754;2023-11-21T04:47:35;94529.50;;;10.35;90.75
19783;BME280;10051;40.294;-3.754;2023-11-21T04:50:02;94567.59;;;10.59;90.44
19783;BME280;10051;40.294;-3.754;2023-11-21T04:52:29;94548.38;;;10.58;89.78
19783;BME280;10051;40.294;-3.754;2023-11-21T04:54:54;94538.94;;;10.52;89.34
19783;BME280;10051;40.294;-3.754;2023-11-21T04:57:22;94554.19;;;10.45;90.89
19783;BME280;10051;40.294;-3.754;2023-11-21T04:59:50;94567.34;;;10.50;90.74
19783;BME280;10051;40.294;-3.754;2023-11-21T05:02:16;94563.16;;;10.44;90.78
19783;BME280;10051;40.294;-3.754;2023-11-21T05:04:43;94562.66;;;10.26;91.89
19783;BME280;10051;40.294;-3.754;2023-11-21T05:07:09;94535.34;;;9.96;92.11
19783;BME280;10051;40.294;-3.754;2023-11-21T05:09:35;94530.63;;;9.98;92.22
19783;BME280;10051;40.294;-3.754;2023-11-21T05:12:01;94530.88;;;10.02;91.97
19783;BME280;10051;40.294;-3.754;2023-11-21T05:14:27;94522.19;;;10.06;92.04
19783;BME280;10051;40.294;-3.754;2023-11-21T05:16:53;94561.84;;;10.31;91.61
19783;BME280;10051;40.294;-3.754;2023-11-21T05:19:18;94562.88;;;10.30;92.52
19783;BME280;10051;40.294;-3.754;2023-11-21T05:21:47;94561.06;;;10.35;91.42
19783;BME280;10051;40.294;-3.754;2023-11-21T05:24:13;94508.56;;;9.99;92.25
19783;BME280;10051;40.294;-3.754;2023-11-21T05:26:38;94562.63;;;10.31;92.08
19783;BME280;10051;40.294;-3.754;2023-11-21T05:29:07;94563.69;;;10.35;91.61
19783;BME280;10051;40.294;-3.754;2023-11-21T05:31:34;94511.19;;;9.99;91.49
19783;BME280;10051;40.294;-3.754;2023-11-21T05:34:00;94562.63;;;10.36;91.22
19783;BME280;10051;40.294;-3.754;2023-11-21T05:36:26;94550.03;;;10.23;92.33
19783;BME280;10051;40.294;-3.754;2023-11-21T05:38:52;94511.16;;;10.04;91.32
19783;BME280;10051;40.294;-3.754;2023-11-21T05:41:18;94557.66;;;10.40;90.74
19783;BME280;10051;40.294;-3.754;2023-11-21T05:43:44;94551.59;;;10.39;90.86
19783;BME280;10051;40.294;-3.754;2023-11-21T05:46:10;94558.44;;;10.30;91.62
19783;BME280;10051;40.294;-3.754;2023-11-21T05:48:38;94561.66;;;9.86;92.64
19783;BME280;10051;40.294;-3.754;2023-11-21T05:51:06;94486.53;;;9.17;94.28
19783;BME280;10051;40.294;-3.754;2023-11-21T05:53:31;94546.94;;;9.64;94.32
19783;BME280;10051;40.294;-3.754;2023-11-21T05:55:57;94546.41;;;9.77;93.65
19783;BME280;10051;40.294;-3.754;2023-11-21T05:58:23;94570.03;;;10.03;93.12
19783;BME280;10051;40.294;-3.754;2023-11-21T06:00:49;94529.59;;;9.73;92.99
19783;BME280;10051;40.294;-3.754;2023-11-21T06:03:14;94575.28;;;9.62;94.89
19783;BME280;10051;40.294;-3.754;2023-11-21T06:05:40;94570.25;;;9.34;96.24
19783;BME280;10051;40.294;-3.754;2023-11-21T06:08:06;94530.09;;;9.18;95.69
19783;BME280;10051;40.294;-3.754;2023-11-21T06:10:32;94585.78;;;9.51;94.90
19783;BME280;10051;40.294;-3.754;2023-11-21T06:12:58;94586.06;;;9.60;94.45
19783;BME280;10051;40.294;-3.754;2023-11-21T06:15:24;94591.56;;;9.69;94.02
19783;BME280;10051;40.294;-3.754;2023-11-21T06:17:49;94568.22;;;9.57;93.74
19783;BME280;10051;40.294;-3.754;2023-11-21T06:20:18;94605.22;;;9.66;93.70
19783;BME280;10051;40.294;-3.754;2023-11-21T06:22:46;94593.56;;;9.05;96.65
19783;BME280;10051;40.294;-3.754;2023-11-21T06:25:12;94615.59;;;9.04;98.41
19783;BME280;10051;40.294;-3.754;2023-11-21T06:27:40;94603.53;;;9.03;98.61
19783;BME280;10051;40.294;-3.754;2023-11-21T06:30:07;94615.66;;;9.30;96.85
19783;BME280;10051;40.294;-3.754;2023-11-21T06:32:35;94588.38;;;9.36;95.85
19783;BME280;10051;40.294;-3.754;2023-11-21T06:35:02;94610.47;;;9.71;94.51
19783;BME280;10051;40.294;-3.754;2023-11-21T06:37:30;94563.19;;;9.40;93.58
19783;BME280;10051;40.294;-3.754;2023-11-21T06:39:56;94621.53;;;9.78;91.76
19783;BME280;10051;40.294;-3.754;2023-11-21T06:42:23;94593.66;;;9.62;91.04
19783;BME280;10051;40.294;-3.754;2023-11-21T06:44:52;94547.19;;;9.26;91.05
19783;BME280;10051;40.294;-3.754;2023-11-21T06:47:19;94635.66;;;9.57;92.07
19783;BME280;10051;40.294;-3.754;2023-11-21T06:49:50;94643.53;;;9.46;92.06
19783;BME280;10051;40.294;-3.754;2023-11-21T06:52:16;94573.13;;;9.17;91.86
19783;BME280;10051;40.294;-3.754;2023-11-21T06:54:42;94576.03;;;9.36;91.25
19783;BME280;10051;40.294;-3.754;2023-11-21T06:57:08;94605.25;;;9.81;89.72
19783;BME280;10051;40.294;-3.754;2023-11-21T06:59:34;94615.22;;;9.95;88.87
19783;BME280;10051;40.294;-3.754;2023-11-21T07:02:03;94634.66;;;10.04;88.94
19783;BME280;10051;40.294;-3.754;2023-11-21T07:04:35;94588.69;;;9.81;88.59
19783;BME280;10051;40.294;-3.754;2023-11-21T07:07:02;94588.97;;;9.85;87.62
19783;BME280;10051;40.294;-3.754;2023-11-21T07:09:29;94615.75;;;9.71;88.47
19783;BME280;10051;40.294;-3.754;2023-11-21T07:11:55;94653.06;;;9.84;89.74
19783;BME280;10051;40.294;-3.754;2023-11-21T07:14:21;94607.09;;;9.71;88.81
19783;BME280;10051;40.294;-3.754;2023-11-21T07:16:50;94659.88;;;10.00;89.15
19783;BME280;10051;40.294;-3.754;2023-11-21T07:19:18;94607.31;;;9.59;89.39
19783;BME280;10051;40.294;-3.754;2023-11-21T07:21:45;94621.78;;;9.77;88.83
19783;BME280;10051;40.294;-3.754;2023-11-21T07:24:11;94645.44;;;10.03;88.86
19783;BME280;10051;40.294;-3.754;2023-11-21T07:26:36;94632.81;;;10.00;89.20
19783;BME280;10051;40.294;-3.754;2023-11-21T07:29:02;94597.38;;;9.87;86.62
19783;BME280;10051;40.294;-3.754;2023-11-21T07:31:28;94609.41;;;9.57;88.05
19783;BME280;10051;40.294;-3.754;2023-11-21T07:33:55;94637.28;;;9.78;87.74
19783;BME280;10051;40.294;-3.754;2023-11-21T07:36:23;94658.59;;;10.08;88.03
19783;BME280;10051;40.294;-3.754;2023-11-21T07:38:49;94646.75;;;10.00;86.99
19783;BME280;10051;40.294;-3.754;2023-11-21T07:41:15;94664.63;;;10.19;87.86
19783;BME280;10051;40.294;-3.754;2023-11-21T07:43:44;94670.41;;;10.26;86.30
19783;BME280;10051;40.294;-3.754;2023-11-21T07:46:11;94670.94;;;10.18;86.80
19783;BME280;10051;40.294;-3.754;2023-11-21T07:48:38;94675.66;;;10.10;87.79
19783;BME280;10051;40.294;-3.754;2023-11-21T07:51:04;94654.63;;;9.90;89.78
19783;BME280;10051;40.294;-3.754;2023-11-21T07:53:30;94671.97;;;10.06;89.72
19783;BME280;10051;40.294;-3.754;2023-11-21T07:56:06;94625.75;;;9.85;89.99
19783;BME280;10051;40.294;-3.754;2023-11-21T07:58:33;94666.97;;;10.31;89.32
19783;BME280;10051;40.294;-3.754;2023-11-21T08:00:59;94660.38;;;10.38;89.65
19783;BME280;10051;40.294;-3.754;2023-11-21T08:03:25;94656.50;;;10.41;88.98
19783;BME280;10051;40.294;-3.754;2023-11-21T08:05:56;94679.88;;;10.48;87.48
19783;BME280;10051;40.294;-3.754;2023-11-21T08:08:24;94690.38;;;10.48;86.92
19783;BME280;10051;40.294;-3.754;2023-11-21T08:10:50;94683.56;;;10.52;87.73
19783;BME280;10051;40.294;-3.754;2023-11-21T08:13:23;94667.00;;;10.46;87.02
19783;BME280;10051;40.294;-3.754;2023-11-21T08:15:57;94686.97;;;10.52;87.73
19783;BME280;10051;40.294;-3.754;2023-11-21T08:18:28;94674.59;;;10.58;87.19
19783;BME280;10051;40.294;-3.754;2023-11-21T08:20:56;94644.34;;;10.71;85.33
19783;BME280;10051;40.294;-3.754;2023-11-21T08:23:23;94678.75;;;10.85;85.82
19783;BME280;10051;40.294;-3.754;2023-11-21T08:25:52;94657.50;;;10.61;85.95
19783;BME280;10051;40.294;-3.754;2023-11-21T08:28:19;94639.88;;;10.61;84.45
19783;BME280;10051;40.294;-3.754;2023-11-21T08:30:45;94672.69;;;10.95;85.38
19783;BME280;10051;40.294;-3.754;2023-11-21T08:33:11;94674.50;;;10.99;83.26
19783;BME280;10051;40.294;-3.754;2023-11-21T08:35:37;94617.03;;;10.56;83.38
19783;BME280;10051;40.294;-3.754;2023-11-21T08:38:03;94609.69;;;10.53;83.10
19783;BME280;10051;40.294;-3.754;2023-11-21T08:40:29;94638.22;;;10.86;81.36
19783;BME280;10051;40.294;-3.754;2023-11-21T08:42:58;94661.03;;;11.16;81.83
19783;BME280;10051;40.294;-3.754;2023-11-21T08:45:24;94699.59;;;11.47;81.12
19783;BME280;10051;40.294;-3.754;2023-11-21T08:47:53;94700.09;;;11.54;78.86
19783;BME280;10051;40.294;-3.754;2023-11-21T08:50:19;94696.63;;;11.64;79.50
19783;BME280;10051;40.294;-3.754;2023-11-21T08:52:45;94695.53;;;11.75;76.62
19783;BME280;10051;40.294;-3.754;2023-11-21T08:55:14;94703.16;;;11.72;76.00
19783;BME280;10051;40.294;-3.754;2023-11-21T08:57:41;94698.41;;;11.74;77.74
19783;BME280;10051;40.294;-3.754;2023-11-21T09:00:08;94696.50;;;11.90;76.09
19783;BME280;10051;40.294;-3.754;2023-11-21T09:02:39;94610.59;;;11.49;78.94
19783;BME280;10051;40.294;-3.754;2023-11-21T09:05:08;94593.19;;;11.53;92.03
19783;BME280;10051;40.294;-3.754;2023-11-21T09:07:35;94702.59;;;12.25;88.29
19783;BME280;10051;40.294;-3.754;2023-11-21T09:10:02;94678.50;;;11.97;78.42
19783;BME280;10051;40.294;-3.754;2023-11-21T09:12:27;94723.94;;;12.29;79.92
19783;BME280;10051;40.294;-3.754;2023-11-21T09:14:53;94671.09;;;12.04;81.62
19783;BME280;10051;40.294;-3.754;2023-11-21T09:17:19;94699.94;;;12.30;83.22
19783;BME280;10051;40.294;-3.754;2023-11-21T09:19:44;94719.53;;;12.54;83.32
19783;BME280;10051;40.294;-3.754;2023-11-21T09:22:17;94693.47;;;12.47;77.81
19783;BME280;10051;40.294;-3.754;2023-11-21T09:24:43;94714.09;;;12.69;80.25
19783;BME280;10051;40.294;-3.754;2023-11-21T09:27:09;94669.00;;;12.41;76.60
19783;BME280;10051;40.294;-3.754;2023-11-21T09:29:35;94720.38;;;13.03;76.99
19783;BME280;10051;40.294;-3.754;2023-11-21T09:32:05;94728.00;;;13.04;76.12
19783;BME280;10051;40.294;-3.754;2023-11-21T09:34:34;94729.94;;;13.23;76.86
19783;BME280;10051;40.294;-3.754;2023-11-21T09:37:07;94726.63;;;13.42;76.82
19783;BME280;10051;40.294;-3.754;2023-11-21T09:39:36;94733.31;;;13.53;72.54
19783;BME280;10051;40.294;-3.754;2023-11-21T09:42:10;94725.34;;;13.58;73.05
19783;BME280;10051;40.294;-3.754;2023-11-21T09:48:00;94723.44;;;13.64;72.42
19783;BME280;10051;40.294;-3.754;2023-11-21T09:50:27;94699.38;;;13.65;72.36
19783;BME280;10051;40.294;-3.754;2023-11-21T09:53:24;94728.69;;;13.88;68.51
19783;BME280;10051;40.294;-3.754;2023-11-21T09:55:54;94735.25;;;14.10;66.47
19783;BME280;10051;40.294;-3.754;2023-11-21T09:58:25;94721.53;;;14.08;66.25
19783;BME280;10051;40.294;-3.754;2023-11-21T10:00:55;94718.69;;;14.04;66.01
19783;BME280;10051;40.294;-3.754;2023-11-21T10:03:21;94752.25;;;14.23;66.41
19783;BME280;10051;40.294;-3.754;2023-11-21T10:05:56;94567.28;;;13.03;65.53
19783;BME280;10051;40.294;-3.754;2023-11-21T10:08:25;94748.41;;;14.15;64.58
19783;BME280;10051;40.294;-3.754;2023-11-21T10:10:54;94762.03;;;14.41;63.25
19783;BME280;10051;40.294;-3.754;2023-11-21T10:13:20;94720.81;;;14.21;64.46
19783;BME280;10051;40.294;-3.754;2023-11-21T10:15:51;94743.03;;;14.39;62.52
19783;BME280;10051;40.294;-3.754;2023-11-21T10:18:18;94750.31;;;14.48;63.64
19783;BME280;10051;40.294;-3.754;2023-11-21T10:20:45;94709.50;;;14.16;61.16
19783;BME280;10051;40.294;-3.754;2023-11-21T10:23:19;94750.00;;;14.49;62.67
19783;BME280;10051;40.294;-3.754;2023-11-21T10:25:44;94751.69;;;14.59;62.68
19783;BME280;10051;40.294;-3.754;2023-11-21T10:28:10;94692.88;;;14.48;62.55
19783;BME280;10051;40.294;-3.754;2023-11-21T10:30:39;94726.69;;;14.84;62.21
19783;BME280;10051;40.294;-3.754;2023-11-21T10:33:07;94685.41;;;14.83;62.63
19783;BME280;10051;40.294;-3.754;2023-11-21T10:35:46;94708.91;;;15.04;61.93
19783;BME280;10051;40.294;-3.754;2023-11-21T10:38:16;94736.28;;;15.27;60.89
19783;BME280;10051;40.294;-3.754;2023-11-21T10:40:44;94723.81;;;15.28;60.09
19783;BME280;10051;40.294;-3.754;2023-11-21T10:43:10;94735.38;;;15.32;59.59
19783;BME280;10051;40.294;-3.754;2023-11-21T10:45:40;94728.13;;;15.24;57.31
19783;BME280;10051;40.294;-3.754;2023-11-21T10:48:07;94740.09;;;15.21;56.78
19783;BME280;10051;40.294;-3.754;2023-11-21T10:50:37;94729.91;;;15.00;56.83
19783;BME280;10051;40.294;-3.754;2023-11-21T10:53:06;94667.22;;;14.49;57.24
19783;BME280;10051;40.294;-3.754;2023-11-21T10:55:35;94736.31;;;14.80;57.71
19783;BME280;10051;40.294;-3.754;2023-11-21T10:58:02;94729.63;;;14.69;59.06
19783;BME280;10051;40.294;-3.754;2023-11-21T11:00:30;94633.53;;;13.88;61.63
19783;BME280;10051;40.294;-3.754;2023-11-21T11:02:57;94679.63;;;14.15;62.34
19783;BME280;10051;40.294;-3.754;2023-11-21T11:05:26;94671.16;;;13.99;59.69
19783;BME280;10051;40.294;-3.754;2023-11-21T11:08:00;94713.31;;;14.09;60.09
19783;BME280;10051;40.294;-3.754;2023-11-21T11:10:28;94710.00;;;14.18;60.60
19783;BME280;10051;40.294;-3.754;2023-11-21T11:12:55;94712.78;;;14.46;59.75
19783;BME280;10051;40.294;-3.754;2023-11-21T11:15:24;94711.59;;;14.71;59.66
19783;BME280;10051;40.294;-3.754;2023-11-21T11:17:50;94705.34;;;14.95;58.96
19783;BME280;10051;40.294;-3.754;2023-11-21T11:20:16;94628.34;;;14.30;57.22
19783;BME280;10051;40.294;-3.754;2023-11-21T11:28:12;94654.09;;;14.57;57.38
19783;BME280;10051;40.294;-3.754;2023-11-21T11:33:59;94689.97;;;14.64;57.59
19783;BME280;10051;40.294;-3.754;2023-11-21T11:36:31;94689.41;;;14.67;56.54
19783;BME280;10051;40.294;-3.754;2023-11-21T11:39:00;94678.59;;;14.63;56.72
19783;BME280;10051;40.294;-3.754;2023-11-21T11:41:32;94617.69;;;14.35;55.62
19783;BME280;10051;40.294;-3.754;2023-11-21T11:44:03;94564.28;;;14.19;55.54
19783;BME280;10051;40.294;-3.754;2023-11-21T11:46:47;94622.00;;;14.78;54.17
19783;BME280;10051;40.294;-3.754;2023-11-21T11:49:28;94677.09;;;15.32;54.43
19783;BME280;10051;40.294;-3.754;2023-11-21T11:54:59;94638.50;;;15.54;53.29
19783;BME280;10051;40.294;-3.754;2023-11-21T11:57:26;94644.53;;;15.31;52.09
19783;BME280;10051;40.294;-3.754;2023-11-21T12:00:08;94661.41;;;15.50;52.75
19783;BME280;10051;40.294;-3.754;2023-11-21T12:02:40;94651.19;;;15.29;52.24
19783;BME280;10051;40.294;-3.754;2023-11-21T12:05:11;94633.44;;;15.43;51.86
19783;BME280;10051;40.294;-3.754;2023-11-21T12:07:43;94575.19;;;15.01;50.31
19783;BME280;10051;40.294;-3.754;2023-11-21T12:10:18;94655.88;;;15.60;51.29
19783;BME280;10051;40.294;-3.754;2023-11-21T12:12:49;94644.69;;;15.63;49.47
19783;BME280;10051;40.294;-3.754;2023-11-21T12:15:15;94618.94;;;15.64;49.17
19783;BME280;10051;40.294;-3.754;2023-11-21T12:17:43;94619.38;;;15.80;49.83
19783;BME280;10051;40.294;-3.754;2023-11-21T12:20:10;94639.19;;;16.19;49.91
19783;BME280;10051;40.294;-3.754;2023-11-21T12:22:46;94633.56;;;16.43;49.22
19783;BME280;10051;40.294;-3.754;2023-11-21T12:25:19;94640.59;;;16.71;48.44
19783;BME280;10051;40.294;-3.754;2023-11-21T12:27:47;94633.94;;;16.91;47.91
19783;BME280;10051;40.294;-3.754;2023-11-21T12:30:15;94615.69;;;16.89;45.62
19783;BME280;10051;40.294;-3.754;2023-11-21T12:32:49;94568.41;;;16.28;46.49
19783;BME280;10051;40.294;-3.754;2023-11-21T12:35:17;94617.28;;;16.68;45.26
19783;BME280;10051;40.294;-3.754;2023-11-21T12:37:45;94612.91;;;16.63;44.80
19783;BME280;10051;40.294;-3.754;2023-11-21T12:40:12;94610.75;;;16.74;44.80
19783;BME280;10051;40.294;-3.754;2023-11-21T12:43:02;94601.25;;;16.82;43.89
19783;BME280;10051;40.294;-3.754;2023-11-21T12:45:40;94604.22;;;16.80;43.79
19783;BME280;10051;40.294;-3.754;2023-11-21T12:48:11;94575.09;;;16.57;44.00
19783;BME280;10051;40.294;-3.754;2023-11-21T12:50:44;94597.03;;;16.80;43.34
19783;BME280;10051;40.294;-3.754;2023-11-21T12:53:15;94551.03;;;16.54;43.03
19783;BME280;10051;40.294;-3.754;2023-11-21T12:55:43;94597.00;;;17.03;42.61
19783;BME280;10051;40.294;-3.754;2023-11-21T12:58:15;94593.97;;;16.87;42.14
19783;BME280;10051;40.294;-3.754;2023-11-21T13:00:48;94609.66;;;16.98;42.13
19783;BME280;10051;40.294;-3.754;2023-11-21T13:03:16;94610.44;;;17.07;41.64
19783;BME280;10051;40.294;-3.754;2023-11-21T13:05:49;94599.78;;;16.98;41.32
19783;BME280;10051;40.294;-3.754;2023-11-21T13:08:21;94578.34;;;16.94;42.03
19783;BME280;10051;40.294;-3.754;2023-11-21T13:10:53;94597.66;;;17.18;41.49